Pagrindinis puslapis
METAR-TAF:

METAR-TAF

Oro uostai :

Wales, Aliaska, Jungtinės Amerikos Valstijos

platuma: 65-37-21N, ilguma: 168-05-42W, Aukštis: 7 m

Dabartinis oras

Ataskaita buvo paskelbta 22 minutes, ne 06:56 UTC
Vėjas 16 kt iš Rytų/Šiaurės Rytų
Temperatūra -24°C
Drėgmė 83%
Slėgis 1019 hPa
Matomumas: 16.1 km
Giedras dangus

METAR: PAIW 280656Z AUTO 06016KT 10SM CLR M24/M26 A3008 RMK AO2 SLPNO T12391256 FZRANO

Laikas: 22:18 (07:18 UTC)


TAF: trūkstamas

Orai ataskaitas ir orų prognozės (METAR, TAF).

turimą stotys yra geltonos ir raudonos taškus žemėlapyje.

Perkelti pele per norėdami pamatyti stoties vardą.

Tada spustelėkite, norėdami matyti oro stebėjimo ir prognozės.

Norėdami pakeisti žemėlapį: spustelėkite ant žalios mygtukų su juodo kryžiaus žemyn,; žalią mygtuką su brūkšneliu, jei norite nutolinti; arba žalių rodyklių gretimoms žemėlapius.


METAR-TAF: